Terminal Aerodrome Forecast
Issued by NWS Mt. Holly, NJ

Home | Current Version | Previous Version | Text Only | Print | Product List | Glossary On
Versions: 1 2 3 4 5 6 7 8 9 10 11 12 13 14 15 16 17 18 19 20 21 22 23 24 25 26 27 28 29 30 31 32 33 34 35 36 37 38 39 40
000
FTUS41 KPHI 262300
TAFPHL
TAF
KPHL 262325Z 2700/2806 04019G25KT 6SM -SN OVC016
      TEMPO 2700/2701 3SM -SN
     FM270100 04019G29KT 2SM -SN OVC010
     FM270300 02020G28KT 1/2SM SN FG OVC005
     FM270800 35020G28KT 1/2SM SN FG OVC005
     FM271500 34018G28KT 2SM -SN BLSN OVC010
     FM271800 33016G26KT 5SM -SN BLSN OVC015
     FM272200 32015G26KT P6SM SCT025 BKN080=

USA.gov is the U.S. government's official web portal to all federal, state and local government web resources and services.